createdAt,value
2019-03-28T00:02:22.771Z,2.26
2019-03-28T00:04:53.840Z,2.21
2019-03-28T00:07:24.341Z,2.25
2019-03-28T00:09:57.537Z,2.18
2019-03-28T00:12:27.360Z,2.13
2019-03-28T00:14:59.398Z,2.13
2019-03-28T00:17:29.341Z,2.06
2019-03-28T00:20:01.495Z,2.03
2019-03-28T00:22:42.178Z,2.06
2019-03-28T00:25:13.806Z,1.99
2019-03-28T00:27:44.201Z,1.91
2019-03-28T00:30:15.417Z,1.99
2019-03-28T00:32:47.870Z,2.06
2019-03-28T00:35:19.168Z,2.01
2019-03-28T00:38:00.092Z,1.93
2019-03-28T00:40:30.419Z,1.93
2019-03-28T00:43:01.101Z,1.95
2019-03-28T00:45:32.497Z,2.04
2019-03-28T00:48:02.374Z,2.09
2019-03-28T00:50:34.774Z,2.10
2019-03-28T00:53:04.555Z,2.09
2019-03-28T00:55:34.567Z,1.99
2019-03-28T00:58:05.645Z,1.90
2019-03-28T01:00:35.286Z,1.92
2019-03-28T01:03:07.030Z,1.79
2019-03-28T01:05:38.099Z,1.77
2019-03-28T01:08:07.706Z,1.75
2019-03-28T01:10:37.397Z,1.77
2019-03-28T01:13:07.266Z,1.74
2019-03-28T01:15:36.915Z,1.63
2019-03-28T01:18:07.583Z,1.52
2019-03-28T01:20:37.265Z,1.65
2019-03-28T01:23:06.842Z,1.73
2019-03-28T01:25:36.470Z,1.78
2019-03-28T01:28:10.349Z,1.83
2019-03-28T01:30:40.021Z,1.70
2019-03-28T01:33:09.619Z,1.63
2019-03-28T01:35:40.671Z,1.57
2019-03-28T01:38:10.351Z,1.58
2019-03-28T01:40:42.356Z,1.63
2019-03-28T01:43:12.134Z,1.65
2019-03-28T01:45:46.031Z,1.63
2019-03-28T01:48:17.084Z,1.66
2019-03-28T01:50:47.297Z,1.66
2019-03-28T01:53:16.868Z,1.21
2019-03-28T01:55:47.515Z,1.29
2019-03-28T01:58:19.193Z,1.43
2019-03-28T02:00:51.176Z,1.43
2019-03-28T02:03:20.895Z,1.39
2019-03-28T02:05:53.110Z,1.28
2019-03-28T02:08:24.884Z,1.25
2019-03-28T02:10:53.992Z,1.34
2019-03-28T02:13:23.684Z,1.44
2019-03-28T02:15:55.329Z,1.45
2019-03-28T02:18:29.223Z,1.50
2019-03-28T02:20:58.834Z,1.52
2019-03-28T02:23:29.982Z,1.37
2019-03-28T02:25:59.553Z,1.31
2019-03-28T02:28:29.305Z,1.34
2019-03-28T02:30:58.919Z,1.36
2019-03-28T02:33:30.814Z,1.22
2019-03-28T02:36:01.810Z,1.26
2019-03-28T02:38:32.337Z,1.26
2019-03-28T02:41:02.041Z,1.22
2019-03-28T02:43:31.672Z,1.19
2019-03-28T02:46:02.690Z,1.17
2019-03-28T02:48:32.534Z,1.18
2019-03-28T02:51:02.287Z,1.19
2019-03-28T02:53:31.999Z,1.15
2019-03-28T02:56:01.668Z,1.17
2019-03-28T02:58:31.258Z,1.24
2019-03-28T03:01:00.861Z,1.28
2019-03-28T03:03:30.456Z,1.28
2019-03-28T03:06:00.102Z,1.30
2019-03-28T03:08:29.693Z,1.28
2019-03-28T03:10:59.320Z,1.30
2019-03-28T03:13:31.236Z,1.21
2019-03-28T03:16:02.060Z,1.10
2019-03-28T03:18:31.643Z,1.11
2019-03-28T03:21:01.347Z,1.05
2019-03-28T03:23:30.971Z,0.96
2019-03-28T03:26:01.130Z,0.83
2019-03-28T03:28:30.695Z,0.90
2019-03-28T03:31:00.277Z,0.92
2019-03-28T03:33:30.113Z,0.97
2019-03-28T03:35:59.798Z,0.89
2019-03-28T03:38:29.383Z,0.98
2019-03-28T03:40:59.031Z,1.08
2019-03-28T03:43:30.895Z,1.11
2019-03-28T03:46:01.979Z,1.06
2019-03-28T03:48:31.602Z,1.09
2019-03-28T03:51:01.234Z,1.01
2019-03-28T03:53:30.839Z,0.92
2019-03-28T03:56:00.484Z,0.83
2019-03-28T03:58:30.093Z,0.78
2019-03-28T04:00:59.701Z,0.83
2019-03-28T04:03:29.655Z,0.77
2019-03-28T04:05:59.345Z,0.73
2019-03-28T04:08:29.364Z,0.68
2019-03-28T04:10:59.010Z,0.64
2019-03-28T04:13:29.659Z,0.80
2019-03-28T04:15:59.318Z,0.89
2019-03-28T04:18:28.937Z,0.93
2019-03-28T04:20:58.532Z,0.93
2019-03-28T04:23:28.380Z,0.84
2019-03-28T04:25:57.950Z,0.81
2019-03-28T04:28:32.149Z,0.75
2019-03-28T04:30:58.920Z,0.68
2019-03-28T04:33:28.832Z,0.61
2019-03-28T04:36:00.154Z,0.58
2019-03-28T04:38:29.772Z,0.57
2019-03-28T04:41:00.331Z,0.55
2019-03-28T04:43:30.040Z,0.56
2019-03-28T04:46:01.246Z,0.65
2019-03-28T04:48:30.909Z,0.65
2019-03-28T04:51:01.337Z,0.49
2019-03-28T04:53:30.928Z,0.55
2019-03-28T04:56:02.139Z,0.60
2019-03-28T04:58:43.756Z,0.67
2019-03-28T05:01:03.865Z,0.70
2019-03-28T05:03:33.523Z,0.70
2019-03-28T05:06:04.231Z,0.70
2019-03-28T05:08:33.860Z,0.67
2019-03-28T05:11:03.501Z,0.57
2019-03-28T05:13:33.171Z,0.41
2019-03-28T05:16:02.760Z,0.34
2019-03-28T05:18:32.422Z,0.45
2019-03-28T05:21:02.085Z,0.45
2019-03-28T05:23:33.748Z,0.50
2019-03-28T05:26:03.374Z,0.54
2019-03-28T05:28:33.013Z,0.54
2019-03-28T05:31:02.684Z,0.42
2019-03-28T05:33:32.322Z,0.22
2019-03-28T05:36:04.451Z,0.49
2019-03-28T05:38:33.968Z,0.51
2019-03-28T05:41:07.403Z,0.63
2019-03-28T05:43:37.177Z,0.70
2019-03-28T05:46:12.070Z,0.73
2019-03-28T05:48:41.730Z,0.74
2019-03-28T05:51:11.951Z,0.76
2019-03-28T05:53:43.966Z,0.81
2019-03-28T05:56:12.905Z,0.82
2019-03-28T05:58:42.541Z,0.80
2019-03-28T06:01:12.190Z,0.89
2019-03-28T06:03:42.467Z,0.95
2019-03-28T06:06:12.275Z,1.19
2019-03-28T06:08:41.890Z,1.44
2019-03-28T06:11:11.449Z,1.63
2019-03-28T06:13:41.099Z,1.90
2019-03-28T06:16:10.730Z,2.08
2019-03-28T06:18:40.336Z,1.57
2019-03-28T06:21:09.907Z,1.21
2019-03-28T06:23:39.638Z,1.37
2019-03-28T06:26:12.736Z,1.18
2019-03-28T06:28:44.014Z,1.39
2019-03-28T06:31:13.655Z,1.11
2019-03-28T06:33:44.850Z,1.36
2019-03-28T06:36:14.590Z,1.05
2019-03-28T06:38:44.347Z,1.40
2019-03-28T06:41:14.034Z,1.46
2019-03-28T06:43:44.912Z,1.93
2019-03-28T06:46:14.606Z,2.12
2019-03-28T06:48:44.257Z,2.19
2019-03-28T06:51:13.955Z,2.51
2019-03-28T06:53:43.674Z,2.58
2019-03-28T06:56:13.266Z,2.91
2019-03-28T06:58:42.891Z,3.66
2019-03-28T07:01:12.499Z,3.18
2019-03-28T07:03:42.240Z,3.49
2019-03-28T07:06:14.581Z,3.72
2019-03-28T07:08:44.247Z,3.73
2019-03-28T07:11:13.838Z,3.98
2019-03-28T07:13:43.435Z,3.96
2019-03-28T07:16:13.039Z,4.22
2019-03-28T07:18:42.696Z,4.60
2019-03-28T07:21:12.364Z,5.69
2019-03-28T07:26:16.732Z,7.05
2019-03-28T07:28:48.641Z,7.74
2019-03-28T07:31:18.531Z,8.02
2019-03-28T07:33:49.389Z,8.84
2019-03-28T07:36:18.904Z,9.04
2019-03-28T07:38:48.804Z,8.96
2019-03-28T07:41:20.221Z,8.92
2019-03-28T07:43:49.852Z,9.07
2019-03-28T07:46:19.468Z,9.30
2019-03-28T07:48:50.072Z,9.76
2019-03-28T07:51:20.761Z,9.49
2019-03-28T07:53:51.803Z,10.29
2019-03-28T07:56:21.710Z,10.58
2019-03-28T07:58:51.356Z,10.76
2019-03-28T08:01:20.995Z,10.54
2019-03-28T08:03:51.888Z,11.26
2019-03-28T08:06:21.496Z,11.54
2019-03-28T08:08:54.485Z,11.46
2019-03-28T08:11:24.318Z,11.40
2019-03-28T08:13:55.913Z,11.94
2019-03-28T08:16:28.699Z,12.01
2019-03-28T08:18:58.008Z,12.27
2019-03-28T08:21:28.532Z,12.51
2019-03-28T08:23:59.487Z,12.91
2019-03-28T08:26:30.416Z,12.14
2019-03-28T08:29:02.678Z,12.75
2019-03-28T08:31:32.310Z,13.48
2019-03-28T08:34:22.683Z,12.71
2019-03-28T08:36:52.393Z,13.80
2019-03-28T08:39:23.218Z,13.36
2019-03-28T08:41:53.132Z,13.97
2019-03-28T08:44:24.793Z,13.88
2019-03-28T08:46:55.025Z,12.36
2019-03-28T08:49:25.019Z,11.92
2019-03-28T08:51:54.874Z,12.40
2019-03-28T08:54:31.242Z,12.95
2019-03-28T08:57:01.265Z,12.09
2019-03-28T08:59:36.821Z,13.14
2019-03-28T09:02:06.568Z,14.51
2019-03-28T09:04:37.842Z,15.04
2019-03-28T09:07:08.398Z,13.24
2019-03-28T09:09:38.015Z,12.66
2019-03-28T09:12:08.474Z,12.86
2019-03-28T09:14:41.800Z,14.38
2019-03-28T09:17:11.440Z,14.16
2019-03-28T09:19:41.220Z,13.43
2019-03-28T09:22:10.792Z,14.45
2019-03-28T09:24:41.376Z,15.05
2019-03-28T09:27:10.999Z,15.49
2019-03-28T09:29:40.580Z,15.44
2019-03-28T09:32:12.166Z,15.22
2019-03-28T09:34:42.792Z,14.48
2019-03-28T09:37:12.376Z,14.38
2019-03-28T09:39:42.141Z,15.55
2019-03-28T09:42:11.732Z,15.41
2019-03-28T09:44:41.354Z,16.08
2019-03-28T09:47:11.006Z,16.42
2019-03-28T09:49:40.689Z,15.94
2019-03-28T09:52:12.023Z,15.11
2019-03-28T09:54:43.220Z,15.65
2019-03-28T09:57:12.800Z,16.58
2019-03-28T09:59:42.416Z,16.75
2019-03-28T10:02:13.529Z,17.16
2019-03-28T10:04:44.462Z,17.44
2019-03-28T10:07:14.072Z,16.68
2019-03-28T10:09:43.851Z,16.39
2019-03-28T10:12:13.425Z,16.68
2019-03-28T10:14:43.071Z,16.69
2019-03-28T10:17:12.708Z,16.45
2019-03-28T10:19:42.389Z,16.82
2019-03-28T10:22:14.422Z,16.80
2019-03-28T10:24:45.182Z,16.88
2019-03-28T10:27:14.742Z,16.96
2019-03-28T10:29:44.414Z,16.76
2019-03-28T10:32:13.938Z,16.33
2019-03-28T10:34:43.575Z,15.85
2019-03-28T10:37:13.190Z,16.59
2019-03-28T10:39:42.863Z,16.07
2019-03-28T10:42:12.455Z,17.13
2019-03-28T10:44:43.205Z,16.58
2019-03-28T10:47:12.860Z,16.37
2019-03-28T10:49:42.534Z,15.65
2019-03-28T10:52:12.211Z,17.84
2019-03-28T10:54:41.880Z,17.42
2019-03-28T10:57:15.475Z,18.26
2019-03-28T10:59:42.777Z,17.86
2019-03-28T11:02:12.661Z,17.68
2019-03-28T11:04:43.396Z,16.96
2019-03-28T11:07:12.986Z,16.71
2019-03-28T11:09:42.612Z,17.27
2019-03-28T11:12:12.242Z,17.54
2019-03-28T11:14:41.866Z,17.78
2019-03-28T11:17:11.460Z,17.30
2019-03-28T11:19:41.033Z,18.01
2019-03-28T11:22:10.610Z,17.04
2019-03-28T11:24:42.028Z,18.03
2019-03-28T11:27:11.652Z,15.88
2019-03-28T11:29:43.083Z,15.25
2019-03-28T11:32:12.729Z,15.79
2019-03-28T11:34:43.615Z,16.58
2019-03-28T11:37:25.273Z,15.06
2019-03-28T11:39:44.543Z,15.90
2019-03-28T11:42:15.264Z,17.19
2019-03-28T11:44:46.161Z,17.21
2019-03-28T11:47:15.792Z,17.01
2019-03-28T11:49:45.392Z,17.33
2019-03-28T11:52:15.003Z,17.15
2019-03-28T11:54:44.627Z,17.34
2019-03-28T11:57:15.766Z,17.20
2019-03-28T11:59:45.830Z,17.86
2019-03-28T12:02:20.114Z,17.29
2019-03-28T12:04:48.399Z,17.34
2019-03-28T12:07:17.970Z,17.95
2019-03-28T12:09:49.040Z,17.50
2019-03-28T12:12:18.660Z,17.88
2019-03-28T12:14:49.580Z,17.04
2019-03-28T12:17:19.242Z,17.18
2019-03-28T12:19:49.396Z,17.31
2019-03-28T12:22:21.343Z,17.57
2019-03-28T12:24:52.025Z,16.70
2019-03-28T12:27:21.637Z,15.17
2019-03-28T12:29:51.332Z,14.53
2019-03-28T12:32:20.911Z,14.84
2019-03-28T12:34:51.769Z,14.95
2019-03-28T12:37:21.433Z,15.58
2019-03-28T12:39:51.070Z,15.75
2019-03-28T12:42:20.625Z,16.74
2019-03-28T12:44:56.977Z,17.42
2019-03-28T12:47:21.650Z,16.37
2019-03-28T12:49:51.353Z,16.14
2019-03-28T12:52:23.303Z,15.60
2019-03-28T12:54:54.758Z,16.20
2019-03-28T12:57:24.502Z,16.12
2019-03-28T12:59:54.112Z,16.93
2019-03-28T13:02:31.462Z,15.67
2019-03-28T13:04:59.013Z,15.29
2019-03-28T13:07:31.647Z,14.82
2019-03-28T13:10:02.117Z,15.11
2019-03-28T13:12:32.022Z,15.78
2019-03-28T13:15:04.779Z,15.63
2019-03-28T13:17:34.440Z,16.54
2019-03-28T13:20:04.581Z,16.76
2019-03-28T13:22:34.168Z,16.68
2019-03-28T13:25:04.827Z,16.78
2019-03-28T13:27:34.938Z,16.42
2019-03-28T13:30:06.100Z,16.13
2019-03-28T13:32:41.789Z,15.47
2019-03-28T13:35:10.932Z,16.22
2019-03-28T13:37:40.485Z,15.95
2019-03-28T13:40:12.760Z,16.64
2019-03-28T13:42:42.350Z,16.77
2019-03-28T13:45:12.056Z,16.85
2019-03-28T13:47:44.023Z,17.23
2019-03-28T13:50:13.639Z,16.35
2019-03-28T13:52:43.302Z,15.37
2019-03-28T13:55:12.901Z,15.70
2019-03-28T13:57:43.570Z,16.05
2019-03-28T14:00:13.212Z,15.14
2019-03-28T14:02:54.846Z,15.39
2019-03-28T14:05:15.929Z,15.39
2019-03-28T14:07:45.535Z,16.03
2019-03-28T14:10:15.167Z,15.12
2019-03-28T14:12:44.776Z,14.97
2019-03-28T14:15:14.360Z,15.18
2019-03-28T14:17:43.940Z,15.36
2019-03-28T14:20:13.592Z,15.81
2019-03-28T14:22:43.178Z,15.50
2019-03-28T14:25:12.807Z,15.04
2019-03-28T14:27:42.477Z,14.48
2019-03-28T14:30:12.123Z,14.91
2019-03-28T14:32:52.421Z,15.03
2019-03-28T14:35:14.407Z,15.32
2019-03-28T14:37:44.005Z,15.39
2019-03-28T14:40:13.631Z,15.40
2019-03-28T14:42:43.255Z,14.80
2019-03-28T14:45:12.942Z,15.18
2019-03-28T14:47:43.843Z,15.43
2019-03-28T14:50:18.804Z,15.47
2019-03-28T14:52:49.679Z,15.16
2019-03-28T14:55:19.428Z,15.25
2019-03-28T14:57:49.057Z,15.00
2019-03-28T15:00:34.985Z,15.13
2019-03-28T15:03:09.221Z,15.22
2019-03-28T15:05:40.099Z,15.05
2019-03-28T15:08:14.072Z,15.28
2019-03-28T15:10:43.791Z,15.27
2019-03-28T15:13:13.375Z,15.00
2019-03-28T15:15:43.024Z,15.05
2019-03-28T15:18:12.619Z,15.10
2019-03-28T15:20:42.228Z,15.18
2019-03-28T15:23:11.888Z,15.19
2019-03-28T15:25:41.613Z,15.01
2019-03-28T15:28:11.235Z,15.00
2019-03-28T15:30:40.890Z,14.84
2019-03-28T15:33:10.623Z,14.83
2019-03-28T15:35:40.179Z,14.66
2019-03-28T15:38:09.885Z,15.01
2019-03-28T15:40:39.533Z,15.34
2019-03-28T15:43:11.339Z,14.98
2019-03-28T15:45:42.402Z,14.45
2019-03-28T15:48:12.422Z,14.54
2019-03-28T15:50:43.426Z,14.65
2019-03-28T15:53:15.134Z,14.40
2019-03-28T15:55:48.631Z,14.50
2019-03-28T15:58:23.563Z,14.42
2019-03-28T16:00:50.303Z,14.58
2019-03-28T16:03:20.101Z,14.73
2019-03-28T16:05:58.157Z,14.40
2019-03-28T16:08:22.408Z,14.33
2019-03-28T16:10:52.176Z,14.65
2019-03-28T16:13:22.796Z,14.16
2019-03-28T16:15:53.011Z,14.14
2019-03-28T16:18:22.770Z,14.28
2019-03-28T16:20:53.565Z,14.16
2019-03-28T16:23:23.108Z,14.06
2019-03-28T16:25:52.835Z,14.25
2019-03-28T16:28:22.454Z,14.00
2019-03-28T16:30:52.085Z,14.06
2019-03-28T16:33:21.694Z,14.32
2019-03-28T16:35:51.532Z,14.07
2019-03-28T16:38:21.818Z,14.02
2019-03-28T16:40:51.697Z,14.05
2019-03-28T16:43:21.339Z,14.10
2019-03-28T16:45:52.037Z,14.16
2019-03-28T16:48:21.764Z,14.12
2019-03-28T16:50:51.531Z,14.17
2019-03-28T16:53:21.133Z,14.09
2019-03-28T16:55:50.909Z,14.07
2019-03-28T16:58:20.727Z,13.80
2019-03-28T17:00:50.564Z,13.76
2019-03-28T17:03:21.475Z,13.88
2019-03-28T17:05:52.357Z,13.59
2019-03-28T17:08:22.037Z,13.65
2019-03-28T17:10:52.835Z,13.59
2019-03-28T17:13:23.454Z,13.51
2019-03-28T17:15:54.526Z,13.38
2019-03-28T17:18:24.286Z,13.41
2019-03-28T17:20:55.145Z,13.41
2019-03-28T17:23:25.046Z,13.45
2019-03-28T17:25:56.021Z,13.37
2019-03-28T17:28:25.658Z,13.37
2019-03-28T17:30:55.304Z,13.32
2019-03-28T17:33:24.887Z,13.34
2019-03-28T17:35:55.469Z,13.35
2019-03-28T17:38:25.212Z,13.34
2019-03-28T17:40:55.208Z,13.02
2019-03-28T17:43:24.917Z,12.86
2019-03-28T17:45:54.482Z,12.78
2019-03-28T17:48:24.422Z,12.81
2019-03-28T17:50:56.314Z,12.79
2019-03-28T17:53:26.017Z,12.58
2019-03-28T17:55:57.179Z,12.47
2019-03-28T17:58:27.275Z,12.36
2019-03-28T18:00:56.903Z,12.32
2019-03-28T18:03:31.471Z,12.19
2019-03-28T18:06:00.431Z,12.25
2019-03-28T18:08:30.447Z,12.05
2019-03-28T18:11:00.499Z,11.88
2019-03-28T18:13:39.647Z,11.74
2019-03-28T18:16:11.988Z,11.69
2019-03-28T18:18:41.650Z,11.52
2019-03-28T18:21:11.299Z,11.25
2019-03-28T18:23:40.992Z,11.06
2019-03-28T18:26:10.601Z,11.14
2019-03-28T18:28:40.176Z,11.41
2019-03-28T18:31:09.914Z,11.54
2019-03-28T18:33:39.527Z,11.34
2019-03-28T18:36:12.856Z,11.37
2019-03-28T18:38:43.259Z,11.34
2019-03-28T18:41:13.268Z,11.42
2019-03-28T18:43:43.342Z,11.38
2019-03-28T18:46:15.941Z,11.21
2019-03-28T18:48:45.934Z,11.04
2019-03-28T18:51:17.666Z,10.97
2019-03-28T18:53:47.414Z,10.98
2019-03-28T18:56:18.343Z,11.00
2019-03-28T18:58:48.510Z,11.17
2019-03-28T19:01:18.136Z,11.06
2019-03-28T19:03:47.884Z,11.10
2019-03-28T19:06:18.562Z,11.07
2019-03-28T19:08:49.618Z,10.99
2019-03-28T19:11:19.300Z,10.96
2019-03-28T19:13:49.056Z,10.92
2019-03-28T19:16:21.867Z,11.02
2019-03-28T19:18:51.940Z,10.93
2019-03-28T19:21:21.776Z,10.92
2019-03-28T19:23:51.465Z,10.79
2019-03-28T19:26:21.255Z,10.88
2019-03-28T19:29:03.687Z,10.84
2019-03-28T19:31:33.448Z,10.85
2019-03-28T19:34:04.160Z,10.84
2019-03-28T19:36:33.788Z,10.76
2019-03-28T19:39:04.465Z,10.76
2019-03-28T19:41:34.084Z,10.70
2019-03-28T19:44:03.891Z,10.68
2019-03-28T19:46:33.530Z,10.66
2019-03-28T19:49:03.165Z,10.69
2019-03-28T19:51:33.334Z,10.68
2019-03-28T19:54:03.609Z,10.52
2019-03-28T19:56:33.263Z,10.51
2019-03-28T19:59:02.925Z,10.45
2019-03-28T20:01:32.641Z,10.40
2019-03-28T20:04:02.309Z,10.31
2019-03-28T20:06:31.887Z,10.32
2019-03-28T20:09:15.354Z,10.14
2019-03-28T20:11:33.133Z,10.30
2019-03-28T20:14:02.786Z,10.19
2019-03-28T20:16:32.341Z,9.89
2019-03-28T20:19:03.538Z,9.65
2019-03-28T20:21:33.160Z,9.51
2019-03-28T20:24:02.786Z,9.44
2019-03-28T20:26:32.370Z,9.27
2019-03-28T20:29:02.374Z,9.30
2019-03-28T20:31:32.062Z,9.09
2019-03-28T20:34:01.852Z,8.96
2019-03-28T20:36:38.594Z,8.80
2019-03-28T20:39:07.445Z,8.78
2019-03-28T20:41:37.387Z,8.63
2019-03-28T20:44:11.506Z,8.49
2019-03-28T20:46:40.855Z,8.47
2019-03-28T20:49:11.970Z,8.47
2019-03-28T20:51:41.803Z,8.45
2019-03-28T20:54:13.026Z,8.21
2019-03-28T20:56:43.256Z,8.15
2019-03-28T20:59:15.213Z,8.08
2019-03-28T21:01:45.294Z,8.13
2019-03-28T21:04:30.315Z,8.04
2019-03-28T21:06:49.677Z,7.94
2019-03-28T21:09:19.319Z,7.72
2019-03-28T21:11:49.955Z,7.70
2019-03-28T21:14:19.581Z,7.66
2019-03-28T21:16:49.243Z,7.63
2019-03-28T21:19:19.206Z,7.48
2019-03-28T21:21:48.844Z,7.40
2019-03-28T21:24:18.653Z,7.31
2019-03-28T21:26:48.311Z,7.25
2019-03-28T21:29:18.143Z,7.28
2019-03-28T21:31:50.168Z,7.31
2019-03-28T21:34:19.182Z,7.26
2019-03-28T21:36:48.789Z,7.23
2019-03-28T21:39:18.602Z,7.17
2019-03-28T21:41:49.734Z,7.11
2019-03-28T21:44:19.389Z,7.12
2019-03-28T21:46:49.351Z,7.05
2019-03-28T21:49:19.475Z,6.91
2019-03-28T21:51:49.411Z,6.73
2019-03-28T21:54:19.050Z,6.66
2019-03-28T21:56:49.857Z,6.56
2019-03-28T21:59:20.945Z,6.52
2019-03-28T22:01:52.472Z,6.48
2019-03-28T22:04:22.277Z,6.47
2019-03-28T22:06:54.232Z,6.41
2019-03-28T22:09:24.246Z,6.29
2019-03-28T22:11:55.701Z,6.16
2019-03-28T22:14:25.463Z,6.05
2019-03-28T22:16:55.149Z,6.06
2019-03-28T22:19:25.907Z,6.09
2019-03-28T22:21:56.608Z,6.10
2019-03-28T22:24:26.345Z,5.99
2019-03-28T22:26:56.292Z,5.95
2019-03-28T22:29:26.171Z,5.94
2019-03-28T22:31:57.478Z,5.89
2019-03-28T22:34:28.373Z,5.89
2019-03-28T22:36:59.961Z,5.87
2019-03-28T22:39:29.516Z,5.78
2019-03-28T22:42:02.304Z,5.74
2019-03-28T22:44:33.889Z,5.76
2019-03-28T22:47:03.355Z,5.70
2019-03-28T22:49:33.183Z,5.64
2019-03-28T22:52:03.146Z,5.60
2019-03-28T22:54:32.745Z,5.59
2019-03-28T22:57:02.479Z,5.61
2019-03-28T22:59:32.574Z,5.60
2019-03-28T23:02:02.902Z,5.56
2019-03-28T23:04:32.669Z,5.26
2019-03-28T23:07:10.854Z,5.26
2019-03-28T23:09:34.864Z,5.00
2019-03-28T23:12:05.480Z,5.09
2019-03-28T23:14:35.120Z,5.10
2019-03-28T23:17:04.721Z,5.12
2019-03-28T23:19:34.436Z,5.07
2019-03-28T23:22:04.248Z,5.03
2019-03-28T23:24:34.201Z,4.99
2019-03-28T23:27:03.866Z,5.02
2019-03-28T23:29:33.459Z,4.98
2019-03-28T23:32:03.189Z,4.99
2019-03-28T23:34:33.731Z,4.97
2019-03-28T23:37:03.625Z,4.99
2019-03-28T23:39:37.180Z,5.01
2019-03-28T23:42:08.737Z,4.97
2019-03-28T23:44:39.497Z,4.92
2019-03-28T23:47:09.075Z,4.88
2019-03-28T23:49:38.931Z,4.90
2019-03-28T23:52:12.713Z,4.88
2019-03-28T23:54:42.361Z,4.76
2019-03-28T23:57:19.561Z,4.68
2019-03-28T23:59:51.554Z,4.61
